Time;durP1;ratioP1;P1;durP2;ratioP2;P2;SDS_P1;SDS_P2;PMS_P1;PMS_P2;Temp;Humidity;BMP_temperature;BMP_pressure;BME280_temperature;BME280_humidity;BME280_pressure;Samples;Min_cycle;Max_cycle;Signal;HPM_P1;HPM_P2
2022/09/30 00:01:19;;;;;;;8.63;5.60;;;;;;;9.54;94.63;97195.31;4191719;28;20667;-85
2022/09/30 00:03:23;;;;;;;8.63;6.10;;;;;;;9.57;95.37;97191.66;4191836;28;20205;-84
2022/09/30 00:05:26;;;;;;;7.93;6.43;;;;;;;9.58;95.58;97194.16;4192227;28;20224;-85
2022/09/30 00:07:29;;;;;;;7.53;6.10;;;;;;;9.60;95.48;97191.44;4179916;28;20628;-85
2022/09/30 00:09:32;;;;;;;7.95;5.57;;;;;;;9.60;95.38;97196.63;4195448;28;20634;-84
2022/09/30 00:11:37;;;;;;;6.57;5.50;;;;;;;9.62;95.71;97194.72;4192438;28;20786;-85
2022/09/30 00:13:40;;;;;;;12.10;7.63;;;;;;;9.62;95.46;97194.72;4189256;28;20634;-85
2022/09/30 00:15:46;;;;;;;8.27;6.10;;;;;;;9.62;95.45;97199.94;4177220;28;20491;-85
2022/09/30 00:17:50;;;;;;;7.57;5.87;;;;;;;9.62;95.70;97202.53;4193295;28;20627;-85
2022/09/30 00:19:54;;;;;;;7.30;5.50;;;;;;;9.63;95.71;97206.81;4191766;28;21285;-85
2022/09/30 00:21:57;;;;;;;6.67;5.67;;;;;;;9.65;95.13;97208.34;4178367;28;20691;-84
2022/09/30 00:24:00;;;;;;;8.17;5.63;;;;;;;9.63;93.78;97204.19;4189064;28;20616;-85
2022/09/30 00:26:05;;;;;;;7.57;6.20;;;;;;;9.56;93.44;97203.00;4194447;28;20995;-85
2022/09/30 00:28:08;;;;;;;7.55;5.47;;;;;;;9.47;93.00;97212.38;4187362;28;20722;-86
2022/09/30 00:30:11;;;;;;;8.10;5.60;;;;;;;9.39;92.50;97211.31;4168674;28;20215;-85
2022/09/30 00:32:14;;;;;;;7.87;6.40;;;;;;;9.28;92.33;97200.91;4191575;28;20632;-85
2022/09/30 00:34:19;;;;;;;14.00;7.07;;;;;;;9.21;92.14;97204.13;4194327;28;20632;-85
2022/09/30 00:36:22;;;;;;;9.17;6.70;;;;;;;9.16;92.60;97201.88;4188889;28;20620;-85
2022/09/30 00:38:25;;;;;;;11.07;7.40;;;;;;;9.16;92.74;97209.66;4190912;28;20747;-85
2022/09/30 00:40:29;;;;;;;10.93;6.80;;;;;;;9.14;92.41;97200.31;4189510;28;20638;-85
2022/09/30 00:42:32;;;;;;;10.43;7.10;;;;;;;9.14;92.86;97208.13;4188803;28;20690;-85
2022/09/30 00:45:04;;;;;;;9.00;6.82;;;;;;;9.13;93.32;97202.09;4188356;28;20247;-84
2022/09/30 00:47:22;;;;;;;9.03;6.60;;;;;;;9.11;93.12;97204.00;4186647;28;20454;-85
2022/09/30 00:49:26;;;;;;;9.60;6.70;;;;;;;9.10;93.45;97212.75;4186493;28;20644;-85
2022/09/30 00:51:33;;;;;;;10.00;6.83;;;;;;;9.09;93.33;97205.06;4206687;28;20690;-85
2022/09/30 00:53:40;;;;;;;10.53;5.57;;;;;;;9.08;93.28;97208.59;4188821;28;20624;-85
2022/09/30 00:55:51;;;;;;;6.78;5.00;;;;;;;9.07;93.29;97210.38;4185080;28;20731;-85
2022/09/30 00:57:55;;;;;;;6.13;5.23;;;;;;;9.08;93.35;97213.78;4195168;28;20205;-85
2022/09/30 00:59:58;;;;;;;7.68;5.72;;;;;;;9.10;94.15;97209.31;4193396;28;20643;-84
2022/09/30 01:02:01;;;;;;;10.55;6.07;;;;;;;9.07;93.49;97212.16;4172715;28;20889;-85
2022/09/30 01:04:07;;;;;;;6.65;5.90;;;;;;;9.01;94.04;97215.22;4205026;28;20211;-85
2022/09/30 01:06:11;;;;;;;5.97;5.38;;;;;;;8.97;93.12;97212.00;4193267;28;20671;-85
2022/09/30 01:08:17;;;;;;;7.00;5.67;;;;;;;8.95;93.33;97223.50;4190307;28;20217;-85
2022/09/30 01:10:19;;;;;;;7.32;5.97;;;;;;;8.92;93.19;97212.50;4188463;28;21399;-85
2022/09/30 01:12:24;;;;;;;7.93;5.45;;;;;;;8.91;93.67;97221.22;4201631;28;20320;-85
2022/09/30 01:14:28;;;;;;;9.57;5.37;;;;;;;8.86;92.25;97218.16;4180954;28;20211;-84
2022/09/30 01:16:45;;;;;;;7.65;5.57;;;;;;;8.82;92.64;97232.31;4189200;28;21102;-85
2022/09/30 01:18:55;;;;;;;12.73;5.53;;;;;;;8.84;92.97;97239.06;4194365;28;20209;-85
2022/09/30 01:21:28;;;;;;;9.13;5.95;;;;;;;8.90;93.64;97235.16;4184415;28;20205;-85
2022/09/30 01:23:47;;;;;;;9.10;6.80;;;;;;;8.92;94.47;97233.31;4184994;28;20210;-85
2022/09/30 01:26:03;;;;;;;7.38;5.45;;;;;;;8.93;94.89;97223.59;4189558;28;21205;-85
2022/09/30 01:28:23;;;;;;;9.83;5.40;;;;;;;8.96;94.24;97222.56;4193937;28;20233;-85
2022/09/30 01:30:41;;;;;;;6.87;5.60;;;;;;;8.95;93.82;97226.91;4192273;28;20722;-85
2022/09/30 01:33:04;;;;;;;7.85;5.72;;;;;;;8.95;93.88;97213.91;4185917;28;20627;-84
2022/09/30 01:35:12;;;;;;;7.45;6.00;;;;;;;8.96;94.59;97218.16;4190648;28;20206;-84
2022/09/30 01:37:22;;;;;;;7.13;5.18;;;;;;;8.94;95.01;97220.06;4189668;28;20213;-85
2022/09/30 01:39:31;;;;;;;8.82;6.32;;;;;;;8.90;94.44;97224.75;4188867;28;20310;-85
2022/09/30 01:41:41;;;;;;;7.20;6.28;;;;;;;8.85;94.51;97226.91;4188154;28;20297;-85
2022/09/30 01:43:47;;;;;;;9.73;6.20;;;;;;;8.81;94.66;97233.25;4186536;28;20308;-85
2022/09/30 01:45:57;;;;;;;8.20;5.20;;;;;;;8.81;95.38;97220.25;4191759;28;20337;-85
2022/09/30 01:48:03;;;;;;;9.57;6.13;;;;;;;8.78;94.54;97229.13;4188390;28;20754;-85
2022/09/30 01:50:10;;;;;;;8.52;5.47;;;;;;;8.76;94.66;97222.38;4192197;28;20197;-85
2022/09/30 01:52:15;;;;;;;9.27;5.80;;;;;;;8.74;94.63;97224.28;4187998;28;20376;-85
2022/09/30 01:54:21;;;;;;;9.45;5.00;;;;;;;8.70;94.52;97223.66;4193512;28;20211;-85
2022/09/30 01:56:29;;;;;;;6.25;5.10;;;;;;;8.65;93.66;97219.78;4193022;28;20243;-85
2022/09/30 01:58:37;;;;;;;13.77;5.93;;;;;;;8.66;94.73;97222.25;4180906;28;20247;-85
2022/09/30 02:00:43;;;;;;;14.57;5.60;;;;;;;8.65;94.39;97227.56;4192467;28;20292;-85
2022/09/30 02:02:48;;;;;;;6.57;5.65;;;;;;;8.63;94.30;97235.47;4175822;28;20302;-85
2022/09/30 02:04:56;;;;;;;6.00;5.07;;;;;;;8.63;93.92;97240.66;4188350;28;20255;-85
2022/09/30 02:07:03;;;;;;;10.25;6.40;;;;;;;8.60;94.42;97237.44;4182515;28;20623;-85
2022/09/30 02:09:09;;;;;;;6.85;5.65;;;;;;;8.61;93.59;97245.13;4186656;28;20213;-85
2022/09/30 02:11:16;;;;;;;16.13;7.15;;;;;;;8.59;94.43;97252.22;4173443;28;20283;-85
2022/09/30 02:13:27;;;;;;;8.07;5.80;;;;;;;8.61;94.56;97246.91;4188971;28;20205;-85
2022/09/30 02:15:35;;;;;;;8.75;6.45;;;;;;;8.63;94.76;97252.81;4192103;28;20243;-85
2022/09/30 02:17:47;;;;;;;8.90;6.80;;;;;;;8.65;94.64;97250.94;4193386;28;20233;-85
2022/09/30 02:19:52;;;;;;;9.45;6.00;;;;;;;8.61;94.89;97254.72;4185047;28;20214;-85
2022/09/30 02:22:00;;;;;;;6.95;6.13;;;;;;;8.57;93.19;97258.50;4191663;28;20207;-85
2022/09/30 02:24:07;;;;;;;6.93;5.75;;;;;;;8.54;94.37;97263.91;4184582;28;20308;-85
2022/09/30 02:26:14;;;;;;;7.07;5.55;;;;;;;8.54;94.48;97266.50;4183881;28;20257;-85
2022/09/30 02:28:20;;;;;;;8.43;6.07;;;;;;;8.58;95.67;97273.13;4186088;28;20233;-85
2022/09/30 02:30:24;;;;;;;12.40;6.28;;;;;;;8.60;94.44;97271.22;4187707;28;20227;-85
2022/09/30 02:32:30;;;;;;;8.15;5.85;;;;;;;8.63;94.91;97273.59;4187254;28;20205;-85
2022/09/30 02:34:38;;;;;;;7.55;6.38;;;;;;;8.64;95.57;97270.06;4187508;28;20474;-85
2022/09/30 02:36:45;;;;;;;23.30;7.05;;;;;;;8.67;94.90;97264.66;4188459;28;20240;-85
2022/09/30 02:38:55;;;;;;;12.85;6.30;;;;;;;8.68;95.27;97266.31;4188435;28;20205;-85
2022/09/30 02:41:03;;;;;;;6.93;6.10;;;;;;;8.71;95.81;97263.50;4192022;28;20243;-85
2022/09/30 02:43:07;;;;;;;10.35;6.22;;;;;;;8.72;96.11;97268.59;4176749;28;20217;-85
2022/09/30 02:45:15;;;;;;;26.73;7.70;;;;;;;8.75;96.64;97265.75;4200103;28;20210;-85
2022/09/30 02:47:25;;;;;;;15.20;7.00;;;;;;;8.76;96.83;97266.56;4192827;28;20294;-85
2022/09/30 02:49:31;;;;;;;14.38;6.72;;;;;;;8.76;95.94;97271.78;4191157;28;20209;-85
2022/09/30 02:51:40;;;;;;;7.85;6.45;;;;;;;8.77;96.51;97274.25;4176938;28;20210;-85
2022/09/30 02:53:46;;;;;;;7.63;6.15;;;;;;;8.80;97.35;97274.03;4190169;28;20201;-85
2022/09/30 02:56:04;;;;;;;9.02;5.88;;;;;;;8.81;96.63;97267.91;4188172;28;20206;-85
2022/09/30 02:58:11;;;;;;;8.35;6.50;;;;;;;8.86;97.57;97275.34;4186624;28;20229;-85
2022/09/30 03:00:15;;;;;;;7.50;6.55;;;;;;;8.87;97.02;97271.78;4191863;28;20212;-85
2022/09/30 03:02:18;;;;;;;7.55;6.00;;;;;;;8.87;96.27;97277.84;4188300;28;20290;-85
2022/09/30 03:04:26;;;;;;;10.05;6.63;;;;;;;8.88;97.50;97283.84;4184316;28;20206;-85
2022/09/30 03:06:29;;;;;;;8.52;6.32;;;;;;;8.90;96.91;97292.38;4196672;28;20249;-85
2022/09/30 03:08:33;;;;;;;7.53;5.90;;;;;;;8.90;97.02;97289.75;4184215;28;20205;-85
2022/09/30 03:10:37;;;;;;;7.47;6.47;;;;;;;8.90;97.24;97298.41;4185139;28;20210;-85
2022/09/30 03:12:46;;;;;;;7.18;6.30;;;;;;;8.92;97.21;97298.31;4187381;28;20331;-85
2022/09/30 03:15:12;;;;;;;7.13;6.40;;;;;;;8.91;96.56;97294.03;4194830;28;20229;-85
2022/09/30 03:17:32;;;;;;;7.95;6.32;;;;;;;8.93;97.11;97303.38;4186438;28;20215;-85
2022/09/30 03:19:48;;;;;;;9.65;7.07;;;;;;;8.95;96.84;97307.50;4192972;28;20233;-85
2022/09/30 03:22:04;;;;;;;8.10;6.30;;;;;;;8.94;96.53;97311.06;4196744;28;20220;-85
2022/09/30 03:24:23;;;;;;;9.45;6.63;;;;;;;8.95;96.52;97307.50;4187682;28;20302;-85
2022/09/30 03:26:33;;;;;;;10.75;7.50;;;;;;;8.94;96.40;97311.06;4194999;28;20201;-85
2022/09/30 03:28:44;;;;;;;11.13;6.87;;;;;;;8.91;95.59;97307.03;4196394;28;20247;-85
2022/09/30 03:30:55;;;;;;;9.10;7.30;;;;;;;8.84;95.51;97308.41;4194871;28;20662;-85
2022/09/30 03:33:07;;;;;;;9.00;6.60;;;;;;;8.76;95.42;97311.59;4209180;28;20199;-85
2022/09/30 03:35:17;;;;;;;10.10;6.68;;;;;;;8.71;95.53;97313.69;4189699;28;20205;-85
2022/09/30 03:37:27;;;;;;;8.95;6.93;;;;;;;8.69;95.70;97326.00;4172467;28;20209;-85
2022/09/30 03:39:40;;;;;;;11.90;7.85;;;;;;;8.68;95.88;97320.91;4190844;28;20258;-85
2022/09/30 03:41:46;;;;;;;11.02;7.20;;;;;;;8.65;95.55;97321.94;4195353;28;20205;-85
2022/09/30 03:43:51;;;;;;;14.25;7.30;;;;;;;8.62;95.53;97321.34;4186442;28;20261;-85
2022/09/30 03:46:00;;;;;;;7.93;6.63;;;;;;;8.62;95.37;97323.94;4191702;28;20317;-85
2022/09/30 03:48:04;;;;;;;13.30;6.80;;;;;;;8.60;95.01;97333.59;4188164;28;20208;-85
2022/09/30 03:50:08;;;;;;;8.95;6.78;;;;;;;8.56;95.87;97332.19;4186882;28;20244;-85
2022/09/30 03:52:13;;;;;;;21.50;8.75;;;;;;;8.58;96.07;97332.91;4176593;28;20216;-85
2022/09/30 03:54:16;;;;;;;9.23;6.35;;;;;;;8.57;96.10;97326.88;4194183;28;20278;-85
2022/09/30 03:56:27;;;;;;;86.35;12.20;;;;;;;8.58;95.90;97333.72;4195255;28;20204;-85
2022/09/30 03:58:29;;;;;;;46.72;9.98;;;;;;;8.57;95.69;97334.69;4180967;28;20208;-85
2022/09/30 04:00:33;;;;;;;56.42;10.00;;;;;;;8.57;97.63;97331.25;4194642;28;20212;-85
2022/09/30 04:02:36;;;;;;;44.05;11.05;;;;;;;8.60;96.61;97333.59;4195634;28;20235;-85
2022/09/30 04:04:40;;;;;;;20.73;8.98;;;;;;;8.60;96.80;97334.44;4194786;28;20231;-84
2022/09/30 04:06:43;;;;;;;27.52;9.98;;;;;;;8.61;97.90;97336.09;4196788;28;20205;-85
2022/09/30 04:08:46;;;;;;;46.90;9.55;;;;;;;8.61;96.33;97337.88;4194525;28;20291;-84
2022/09/30 04:10:49;;;;;;;76.97;12.25;;;;;;;8.60;97.42;97336.19;4177888;28;20289;-85
2022/09/30 04:12:54;;;;;;;69.55;11.82;;;;;;;8.60;97.83;97341.41;4210163;28;20778;-85
2022/09/30 04:14:57;;;;;;;69.32;11.85;;;;;;;8.56;97.90;97342.59;4194940;28;20300;-85
2022/09/30 04:17:00;;;;;;;41.35;10.50;;;;;;;8.56;98.63;97346.00;4175210;28;20229;-85
2022/09/30 04:19:03;;;;;;;28.35;7.90;;;;;;;8.56;97.00;97346.00;4195533;28;20216;-85
2022/09/30 04:21:07;;;;;;;47.17;9.13;;;;;;;8.58;97.78;97348.47;4175130;28;20209;-85
2022/09/30 04:23:10;;;;;;;30.77;7.40;;;;;;;8.58;97.01;97351.09;4193827;28;20208;-85
2022/09/30 04:25:13;;;;;;;46.85;8.50;;;;;;;8.59;96.99;97352.75;4188041;28;20267;-85
2022/09/30 04:27:16;;;;;;;40.17;9.55;;;;;;;8.55;96.75;97353.91;4194453;28;20213;-85
2022/09/30 04:29:20;;;;;;;22.73;7.80;;;;;;;8.51;98.01;97347.28;4190899;28;20252;-85
2022/09/30 04:31:24;;;;;;;23.75;7.22;;;;;;;8.50;96.93;97348.22;4193534;28;20554;-85
2022/09/30 04:33:27;;;;;;;19.88;6.95;;;;;;;8.48;97.88;97344.91;4175037;28;20305;-84
2022/09/30 04:35:31;;;;;;;37.80;7.35;;;;;;;8.47;96.97;97351.03;4188278;28;20264;-85
2022/09/30 04:37:34;;;;;;;42.90;7.63;;;;;;;8.44;97.11;97353.84;4193447;28;20198;-84
2022/09/30 04:39:37;;;;;;;27.58;7.03;;;;;;;8.41;96.88;97356.66;4172924;28;20280;-84
2022/09/30 04:41:40;;;;;;;16.50;5.03;;;;;;;8.38;97.05;97364.69;4189523;28;20637;-84
2022/09/30 04:43:44;;;;;;;32.88;6.80;;;;;;;8.36;96.83;97368.31;4189187;28;20313;-85
2022/09/30 04:45:48;;;;;;;9.40;5.20;;;;;;;8.35;96.05;97367.50;4189286;28;20201;-84
2022/09/30 04:47:52;;;;;;;32.65;6.88;;;;;;;8.36;96.01;97371.75;4206491;28;20197;-84
2022/09/30 04:49:55;;;;;;;27.60;8.43;;;;;;;8.34;96.82;97371.03;4193320;28;20212;-85
2022/09/30 04:51:58;;;;;;;43.83;8.30;;;;;;;8.32;96.95;97375.50;4188809;28;20213;-85
2022/09/30 04:54:01;;;;;;;70.80;10.90;;;;;;;8.34;96.31;97372.81;4193208;28;20209;-85
2022/09/30 04:56:05;;;;;;;46.45;11.32;;;;;;;8.33;96.63;97379.78;4192097;28;20197;-84
2022/09/30 04:58:08;;;;;;;47.85;9.68;;;;;;;8.33;97.57;97381.53;4177552;28;20304;-84
2022/09/30 05:00:12;;;;;;;24.85;8.35;;;;;;;8.33;97.16;97384.97;4192718;28;20755;-85
2022/09/30 05:02:16;;;;;;;31.73;13.95;;;;;;;8.32;96.62;97391.09;4194221;28;20236;-85
2022/09/30 05:04:19;;;;;;;17.88;8.65;;;;;;;8.32;96.91;97398.06;4191118;28;20500;-85
2022/09/30 05:06:22;;;;;;;30.00;10.00;;;;;;;8.28;96.57;97397.44;4196811;28;20684;-84
2022/09/30 05:08:25;;;;;;;28.40;12.88;;;;;;;8.26;95.14;97394.13;4190435;28;20263;-85
2022/09/30 05:10:28;;;;;;;30.02;15.52;;;;;;;8.25;96.33;97397.66;4191761;28;20449;-85
2022/09/30 05:12:31;;;;;;;31.10;11.23;;;;;;;8.24;94.57;97390.81;4194061;28;20232;-85
2022/09/30 05:14:34;;;;;;;28.13;11.35;;;;;;;8.21;94.42;97396.22;4179460;28;20210;-85
2022/09/30 05:16:37;;;;;;;29.42;8.23;;;;;;;8.14;94.49;97404.53;4195482;28;20630;-85
2022/09/30 05:18:44;;;;;;;22.30;7.50;;;;;;;8.09;94.92;97406.59;4194043;28;20264;-85
2022/09/30 05:20:49;;;;;;;18.23;7.38;;;;;;;8.03;95.03;97404.44;4189763;28;20201;-84
2022/09/30 05:22:54;;;;;;;28.83;7.50;;;;;;;7.98;95.71;97412.53;4194273;28;20717;-85
2022/09/30 05:24:57;;;;;;;9.23;6.43;;;;;;;7.94;94.52;97412.00;4192983;28;20255;-85
2022/09/30 05:27:01;;;;;;;22.55;7.90;;;;;;;7.91;94.38;97413.06;4188744;28;20264;-85
2022/09/30 05:29:04;;;;;;;16.20;6.93;;;;;;;7.89;95.82;97408.91;4190716;28;20205;-85
2022/09/30 05:31:07;;;;;;;23.88;7.05;;;;;;;7.89;95.18;97414.09;4198048;28;20201;-85
2022/09/30 05:33:10;;;;;;;9.48;6.68;;;;;;;7.88;95.23;97412.41;4166342;28;20686;-84
2022/09/30 05:35:15;;;;;;;12.55;6.93;;;;;;;7.90;96.30;97405.38;4190232;28;20202;-85
2022/09/30 05:37:18;;;;;;;14.32;5.78;;;;;;;7.93;96.24;97405.16;4189603;28;20209;-85
2022/09/30 05:39:21;;;;;;;19.08;6.57;;;;;;;7.92;94.89;97408.69;4191379;28;20209;-85
2022/09/30 05:41:24;;;;;;;7.63;5.05;;;;;;;7.91;96.34;97407.03;4190091;28;20253;-85
2022/09/30 05:43:27;;;;;;;22.23;6.07;;;;;;;7.93;95.55;97418.16;4176121;28;20234;-85
2022/09/30 05:45:30;;;;;;;23.48;6.55;;;;;;;7.95;97.03;97413.69;4189828;28;20222;-85
2022/09/30 05:47:33;;;;;;;15.10;6.40;;;;;;;7.97;97.59;97413.47;4187120;28;20210;-84
2022/09/30 05:49:36;;;;;;;21.02;6.43;;;;;;;8.00;97.38;97417.63;4194466;28;20655;-85
2022/09/30 05:51:40;;;;;;;15.50;6.70;;;;;;;8.04;96.66;97422.50;4191754;28;20197;-85
2022/09/30 05:53:43;;;;;;;18.25;7.05;;;;;;;8.07;97.48;97422.28;4177162;28;20567;-84
2022/09/30 05:55:47;;;;;;;21.10;7.60;;;;;;;8.12;96.30;97427.19;4192459;28;20203;-84
2022/09/30 05:57:51;;;;;;;26.42;7.53;;;;;;;8.14;97.62;97431.31;4178608;28;20206;-85
2022/09/30 05:59:54;;;;;;;30.77;8.05;;;;;;;8.18;97.83;97435.38;4178351;28;20214;-85
2022/09/30 06:01:57;;;;;;;45.10;10.32;;;;;;;8.21;98.18;97437.78;4190283;28;20208;-85
2022/09/30 06:04:00;;;;;;;23.50;6.90;;;;;;;8.26;97.64;97445.25;4190820;28;20828;-85
2022/09/30 06:06:03;;;;;;;45.45;8.85;;;;;;;8.31;97.96;97454.34;4191315;28;20271;-84
2022/09/30 06:08:08;;;;;;;36.28;9.43;;;;;;;8.41;97.18;97454.56;4191505;28;20296;-84
2022/09/30 06:10:11;;;;;;;67.97;10.73;;;;;;;8.45;98.13;97454.25;4174470;28;20263;-84
2022/09/30 06:12:14;;;;;;;70.22;11.23;;;;;;;8.49;97.76;97453.06;4183886;28;20230;-85
2022/09/30 06:14:18;;;;;;;126.80;15.90;;;;;;;8.53;97.30;97454.53;4192076;28;20215;-85
2022/09/30 06:16:22;;;;;;;63.10;11.48;;;;;;;8.54;97.93;97464.00;4177885;28;20260;-85
2022/09/30 06:18:26;;;;;;;118.03;14.75;;;;;;;8.58;96.98;97462.81;4205508;28;20213;-85
2022/09/30 06:20:30;;;;;;;70.38;13.07;;;;;;;8.60;96.93;97455.75;4188964;28;20210;-84
2022/09/30 06:22:34;;;;;;;82.88;12.75;;;;;;;8.61;96.67;97462.59;4187135;28;20853;-85
2022/09/30 06:24:40;;;;;;;38.58;10.20;;;;;;;8.64;97.71;97471.00;4183895;28;20210;-85
2022/09/30 06:26:43;;;;;;;62.20;12.20;;;;;;;8.70;97.19;97467.16;4190470;28;20233;-85
2022/09/30 06:28:46;;;;;;;99.32;15.75;;;;;;;8.73;97.59;97475.56;4187689;28;20233;-85
2022/09/30 06:30:49;;;;;;;111.13;13.65;;;;;;;8.78;97.68;97475.25;4190120;28;20205;-85
2022/09/30 06:32:52;;;;;;;50.42;11.65;;;;;;;8.81;96.06;97477.63;4177049;28;20213;-85
2022/09/30 06:34:56;;;;;;;17.95;8.38;;;;;;;8.79;96.47;97471.72;4186925;28;20204;-85
2022/09/30 06:36:59;;;;;;;69.50;11.75;;;;;;;8.81;96.82;97486.28;4193451;28;20194;-85
2022/09/30 06:39:03;;;;;;;55.97;11.43;;;;;;;8.83;97.00;97488.75;4194781;28;20677;-85
2022/09/30 06:41:08;;;;;;;56.53;11.35;;;;;;;8.86;95.95;97488.53;4183536;28;20614;-85
2022/09/30 06:43:12;;;;;;;70.43;11.40;;;;;;;8.90;96.28;97490.81;4190733;28;20681;-85
2022/09/30 06:45:17;;;;;;;24.33;8.73;;;;;;;9.00;97.24;97502.22;4190396;28;20670;-84
2022/09/30 06:47:33;;;;;;;29.50;10.02;;;;;;;9.10;96.79;97504.03;4191799;28;20261;-84
2022/09/30 06:49:36;;;;;;;31.10;9.90;;;;;;;9.17;96.80;97509.63;4195432;28;20697;-85
2022/09/30 06:51:51;;;;;;;63.72;11.70;;;;;;;9.21;97.13;97504.09;4196088;28;20217;-85
2022/09/30 06:53:55;;;;;;;64.45;11.05;;;;;;;9.22;96.64;97508.38;4195608;28;20210;-85
2022/09/30 06:55:58;;;;;;;28.98;10.95;;;;;;;9.28;97.10;97513.13;4196326;28;20200;-85
2022/09/30 06:58:02;;;;;;;59.97;10.93;;;;;;;9.40;97.58;97504.44;4189017;28;20213;-85
2022/09/30 07:00:06;;;;;;;44.45;11.68;;;;;;;9.50;97.88;97508.00;4178041;28;20245;-85
2022/09/30 07:02:12;;;;;;;54.15;11.00;;;;;;;9.54;96.59;97507.66;4191851;28;20259;-85
2022/09/30 07:04:15;;;;;;;37.35;11.52;;;;;;;9.62;96.86;97509.69;4197574;28;20204;-85
2022/09/30 07:06:18;;;;;;;30.00;10.05;;;;;;;9.65;97.13;97518.13;4173555;28;20595;-84
2022/09/30 07:08:21;;;;;;;25.85;9.75;;;;;;;9.77;97.81;97522.41;4194016;28;20209;-85
2022/09/30 07:10:24;;;;;;;32.70;11.55;;;;;;;9.85;96.19;97530.50;4189241;28;20692;-85
2022/09/30 07:12:27;;;;;;;26.53;9.33;;;;;;;9.83;96.28;97534.16;4197514;28;20233;-84
2022/09/30 07:14:32;;;;;;;31.00;11.68;;;;;;;9.81;96.32;97530.84;4196468;28;20980;-85
2022/09/30 07:16:37;;;;;;;20.38;8.43;;;;;;;9.79;95.75;97535.31;4186166;28;20194;-85
2022/09/30 07:18:41;;;;;;;22.17;8.20;;;;;;;9.77;95.92;97547.63;4198250;28;20205;-85
2022/09/30 07:20:48;;;;;;;28.40;9.00;;;;;;;9.77;95.98;97552.84;4190277;28;20621;-84
2022/09/30 07:22:51;;;;;;;21.83;8.23;;;;;;;9.76;96.33;97545.97;4192422;28;20300;-85
2022/09/30 07:24:54;;;;;;;23.97;8.90;;;;;;;9.75;96.25;97549.53;4193502;28;21155;-85
2022/09/30 07:26:57;;;;;;;33.67;8.40;;;;;;;9.75;95.28;97550.34;4195987;28;21017;-85
2022/09/30 07:29:01;;;;;;;32.23;9.27;;;;;;;9.77;95.36;97552.84;4192270;28;20209;-85
2022/09/30 07:31:10;;;;;;;20.98;8.88;;;;;;;9.78;95.44;97559.72;4210273;28;20725;-85
2022/09/30 07:33:34;;;;;;;13.47;8.10;;;;;;;9.84;95.36;97560.09;4195909;28;20228;-85
2022/09/30 07:35:37;;;;;;;15.20;8.88;;;;;;;9.89;95.66;97564.03;4189247;28;20624;-85
2022/09/30 07:37:40;;;;;;;13.60;8.80;;;;;;;10.02;96.25;97562.19;4191524;28;20465;-85
2022/09/30 07:39:44;;;;;;;15.00;9.30;;;;;;;10.21;95.96;97561.63;4192779;28;20627;-85
2022/09/30 07:41:47;;;;;;;14.73;8.37;;;;;;;10.32;95.36;97556.47;4192797;28;20308;-85
2022/09/30 07:43:50;;;;;;;14.53;8.03;;;;;;;10.32;93.91;97552.88;4191699;28;20639;-86
2022/09/30 07:45:55;;;;;;;12.50;8.20;;;;;;;10.37;94.76;97557.75;4175048;28;20764;-85
2022/09/30 07:48:00;;;;;;;15.20;8.40;;;;;;;10.43;95.04;97557.28;4190065;28;21280;-86
2022/09/30 07:50:04;;;;;;;10.90;7.40;;;;;;;10.49;95.66;97564.63;4186782;28;21187;-85
2022/09/30 07:52:08;;;;;;;9.90;7.97;;;;;;;10.55;94.66;97567.59;4175298;28;20637;-86
2022/09/30 07:54:13;;;;;;;9.68;7.25;;;;;;;10.67;95.94;97574.47;4194912;28;20638;-85
2022/09/30 07:56:17;;;;;;;11.97;8.90;;;;;;;10.86;94.54;97590.38;4196613;28;20235;-85
2022/09/30 07:58:20;;;;;;;15.37;9.50;;;;;;;11.06;95.69;97593.09;4187744;28;20623;-85
2022/09/30 08:00:23;;;;;;;35.13;9.90;;;;;;;11.14;93.34;97595.94;4186911;28;20750;-86
2022/09/30 08:02:44;;;;;;;12.73;9.27;;;;;;;11.30;94.56;97601.59;4188204;28;21080;-86
2022/09/30 08:04:48;;;;;;;11.37;10.17;;;;;;;11.36;94.00;97594.13;4191543;28;20885;-85
2022/09/30 08:06:54;;;;;;;11.60;10.40;;;;;;;11.50;95.17;97599.13;4189210;28;20666;-85
2022/09/30 08:08:58;;;;;;;12.83;10.90;;;;;;;11.73;93.31;97600.72;4210199;28;20631;-85
2022/09/30 08:11:02;;;;;;;13.40;10.73;;;;;;;11.92;92.86;97606.94;4194073;28;20638;-86
2022/09/30 08:13:05;;;;;;;16.97;10.90;;;;;;;12.02;91.77;97605.22;4191372;28;20656;-86
2022/09/30 08:15:09;;;;;;;14.03;10.50;;;;;;;12.16;92.78;97614.56;4189272;28;20637;-86
2022/09/30 08:17:12;;;;;;;14.77;11.00;;;;;;;12.26;90.80;97616.28;4188032;28;21251;-86
2022/09/30 08:19:18;;;;;;;11.57;9.53;;;;;;;12.39;91.53;97623.00;4171232;28;20628;-86
2022/09/30 08:21:22;;;;;;;12.07;10.60;;;;;;;12.58;92.31;97617.88;4189170;28;20631;-86
2022/09/30 08:23:28;;;;;;;14.53;11.40;;;;;;;12.74;90.99;97624.31;4184657;28;20655;-86
2022/09/30 08:25:31;;;;;;;14.50;11.27;;;;;;;12.83;91.48;97626.19;4187410;28;21241;-84
2022/09/30 08:27:34;;;;;;;14.37;10.80;;;;;;;12.86;91.19;97627.72;4191027;28;20640;-86
2022/09/30 08:29:38;;;;;;;12.13;10.57;;;;;;;12.84;90.91;97627.03;4203941;28;20645;-86
2022/09/30 08:32:00;;;;;;;13.87;10.83;;;;;;;12.82;90.92;97627.16;4190314;28;20636;-86
2022/09/30 08:34:03;;;;;;;11.97;10.60;;;;;;;12.86;91.11;97627.72;4194467;28;20640;-86
2022/09/30 08:36:09;;;;;;;11.70;10.03;;;;;;;12.98;91.68;97637.97;4186835;28;21210;-87
2022/09/30 08:38:13;;;;;;;13.10;10.73;;;;;;;13.10;91.32;97641.34;4172309;28;20632;-88
2022/09/30 08:40:19;;;;;;;11.73;9.63;;;;;;;13.10;91.39;97638.72;4193553;28;20624;-87
2022/09/30 08:42:37;;;;;;;15.20;10.40;;;;;;;13.04;91.60;97631.41;4188916;28;20627;-88
2022/09/30 08:44:47;;;;;;;11.60;10.20;;;;;;;13.05;91.24;97633.88;4190203;28;20659;-87
2022/09/30 08:46:55;;;;;;;11.13;9.60;;;;;;;13.12;91.99;97636.81;4193749;28;20643;-87
2022/09/30 08:49:06;;;;;;;10.20;9.10;;;;;;;13.15;91.08;97637.34;4192912;28;20730;-86
2022/09/30 08:51:21;;;;;;;13.67;9.67;;;;;;;13.13;90.80;97639.28;4186987;28;20641;-86
2022/09/30 08:53:30;;;;;;;12.93;9.50;;;;;;;13.08;90.70;97636.25;4190574;28;20647;-87
2022/09/30 08:55:38;;;;;;;12.60;9.50;;;;;;;13.14;90.83;97633.09;4190403;28;21014;-86
2022/09/30 08:57:43;;;;;;;10.60;9.13;;;;;;;13.17;90.41;97637.22;4187519;28;20627;-86
2022/09/30 08:59:54;;;;;;;9.77;8.77;;;;;;;13.10;90.19;97628.25;4187849;28;21210;-86
2022/09/30 09:02:01;;;;;;;10.70;9.67;;;;;;;13.09;90.51;97626.59;4188486;28;20612;-87
2022/09/30 09:04:06;;;;;;;11.13;9.13;;;;;;;13.07;90.24;97628.53;4175131;28;20633;-86
2022/09/30 09:06:20;;;;;;;10.40;8.93;;;;;;;13.11;89.75;97632.50;4186244;28;20657;-87
2022/09/30 09:08:32;;;;;;;10.23;9.00;;;;;;;13.23;91.32;97634.94;4190046;28;20678;-87
2022/09/30 09:10:41;;;;;;;10.43;9.07;;;;;;;13.35;89.68;97639.09;4191010;28;21240;-87
2022/09/30 09:12:50;;;;;;;11.97;10.77;;;;;;;13.44;88.98;97639.13;4190492;28;20676;-87
2022/09/30 09:15:03;;;;;;;10.70;9.50;;;;;;;13.58;88.74;97630.91;4189859;28;20639;-87
2022/09/30 09:17:17;;;;;;;10.87;8.40;;;;;;;13.72;88.30;97641.00;4191984;28;21214;-90
2022/09/30 09:19:25;;;;;;;8.70;7.70;;;;;;;13.94;88.32;97638.97;4191049;28;20628;-88
2022/09/30 09:21:36;;;;;;;11.93;8.73;;;;;;;14.20;90.30;97638.31;4191604;28;20647;-86
2022/09/30 09:23:40;;;;;;;9.00;8.10;;;;;;;14.33;86.33;97640.69;4192301;28;20689;-86
2022/09/30 09:25:48;;;;;;;10.07;8.80;;;;;;;14.43;88.53;97634.44;4185802;28;20624;-86
2022/09/30 09:27:53;;;;;;;10.60;8.27;;;;;;;14.50;85.53;97637.34;4186220;28;20699;-86
2022/09/30 09:30:05;;;;;;;9.50;8.03;;;;;;;14.64;86.67;97627.22;4191905;28;20645;-86
2022/09/30 09:32:13;;;;;;;9.27;8.00;;;;;;;14.85;85.18;97635.75;4185268;28;20639;-86
2022/09/30 09:34:16;;;;;;;8.70;7.70;;;;;;;15.03;86.43;97645.38;4188465;28;20672;-86
2022/09/30 09:36:33;;;;;;;8.20;6.10;;;;;;;15.26;83.09;97633.56;4190130;28;20638;-86
2022/09/30 09:38:44;;;;;;;7.97;6.50;;;;;;;15.44;83.02;97639.72;4175879;28;20649;-87
2022/09/30 09:40:57;;;;;;;9.00;7.00;;;;;;;15.56;83.38;97640.22;4176293;28;20642;-87
2022/09/30 09:43:11;;;;;;;12.43;6.70;;;;;;;15.72;82.73;97635.13;4190885;28;20629;-86
2022/09/30 09:45:22;;;;;;;7.10;6.23;;;;;;;15.79;80.24;97638.84;4186238;28;20644;-86
2022/09/30 09:47:25;;;;;;;8.27;6.10;;;;;;;15.94;82.29;97641.81;4187548;28;20634;-86
2022/09/30 09:49:31;;;;;;;6.70;5.80;;;;;;;16.08;81.22;97648.19;4188910;28;20697;-85
2022/09/30 09:51:36;;;;;;;7.83;5.90;;;;;;;16.14;80.77;97641.53;4189277;28;20753;-85
2022/09/30 09:53:47;;;;;;;6.60;5.33;;;;;;;16.24;80.91;97637.06;4172587;28;20635;-85